Time,TemperatureF,DewpointF,PressureIn,WindDirection,WindDirectionDegrees,WindSpeedMPH,WindSpeedGustMPH,Humidity,HourlyPrecipIn,Conditions,Clouds,dailyrainin,SoftwareType,DateUTC
2013-10-08 00:02:00,58.0,54.0,29.93,WNW,292,0.0,4.0,86,0.00,,,0.00,,2013-10-08 07:02:00,
2013-10-08 00:11:00,58.0,54.0,29.93,WNW,292,0.0,4.0,86,0.00,,,0.00,,2013-10-08 07:11:00,
2013-10-08 00:21:00,58.0,54.0,29.93,WNW,292,0.0,4.0,86,0.00,,,0.00,,2013-10-08 07:21:00,
2013-10-08 00:31:00,58.0,54.0,29.93,WNW,292,0.0,4.0,86,0.00,,,0.00,,2013-10-08 07:31:00,
2013-10-08 00:52:00,56.0,52.0,29.92,WNW,292,0.0,1.0,85,0.00,,,0.00,,2013-10-08 07:52:00,
2013-10-08 01:02:00,56.0,52.0,29.92,WNW,292,0.0,1.0,85,0.00,,,0.00,,2013-10-08 08:02:00,
2013-10-08 01:12:00,56.0,52.0,29.92,WNW,292,0.0,1.0,85,0.00,,,0.00,,2013-10-08 08:12:00,
2013-10-08 01:21:00,56.0,52.0,29.92,WNW,292,0.0,1.0,85,0.00,,,0.00,,2013-10-08 08:21:00,
2013-10-08 01:32:00,56.0,52.0,29.92,WNW,292,0.0,1.0,85,0.00,,,0.00,,2013-10-08 08:32:00,
2013-10-08 01:33:00,55.0,51.0,29.92,WNW,292,0.0,5.0,85,0.00,,,0.00,,2013-10-08 08:33:00,
2013-10-08 01:52:00,55.0,51.0,29.92,WNW,292,0.0,5.0,85,0.00,,,0.00,,2013-10-08 08:52:00,
2013-10-08 02:02:00,55.0,51.0,29.92,WNW,292,0.0,5.0,85,0.00,,,0.00,,2013-10-08 09:02:00,
2013-10-08 02:12:00,55.0,51.0,29.92,WNW,292,0.0,5.0,85,0.00,,,0.00,,2013-10-08 09:12:00,
2013-10-08 02:21:00,55.0,51.0,29.92,WNW,292,0.0,5.0,85,0.00,,,0.00,,2013-10-08 09:21:00,
2013-10-08 03:23:00,56.0,52.0,29.90,NNW,344,3.0,4.0,88,0.00,,,0.00,,2013-10-08 10:23:00,
2013-10-08 03:33:00,56.0,52.0,29.90,NNW,344,3.0,4.0,88,0.00,,,0.00,,2013-10-08 10:33:00,
2013-10-08 03:53:00,56.0,52.0,29.90,NNW,344,0.0,0.0,88,0.00,,,0.00,,2013-10-08 10:53:00,
2013-10-08 04:02:00,56.0,52.0,29.90,NNW,344,0.0,0.0,88,0.00,,,0.00,,2013-10-08 11:02:00,
2013-10-08 04:21:00,54.0,51.0,29.90,NNW,344,4.0,7.0,88,0.00,,,0.00,,2013-10-08 11:21:00,
2013-10-08 04:33:00,54.0,51.0,29.90,NNW,344,4.0,7.0,88,0.00,,,0.00,,2013-10-08 11:33:00,
2013-10-08 04:42:00,54.0,51.0,29.90,NNW,344,4.0,7.0,88,0.00,,,0.00,,2013-10-08 11:42:00,
2013-10-08 04:52:00,53.0,50.0,29.89,NNW,344,0.0,4.0,88,0.00,,,0.00,,2013-10-08 11:52:00,
2013-10-08 05:01:00,53.0,50.0,29.89,NNW,344,0.0,4.0,88,0.00,,,0.00,,2013-10-08 12:01:00,
2013-10-08 05:12:00,53.0,50.0,29.89,NNW,344,0.0,4.0,88,0.00,,,0.00,,2013-10-08 12:12:00,
2013-10-08 05:21:00,53.0,50.0,29.89,NNW,344,0.0,4.0,88,0.00,,,0.00,,2013-10-08 12:21:00,
2013-10-08 05:31:00,53.0,50.0,29.89,NNW,344,0.0,4.0,88,0.00,,,0.00,,2013-10-08 12:31:00,
2013-10-08 06:52:00,50.0,46.0,29.90,NNE,32,2.0,6.0,85,0.00,,,0.00,,2013-10-08 13:52:00,
2013-10-08 07:02:00,50.0,46.0,29.90,NNE,32,2.0,6.0,85,0.00,,,0.00,,2013-10-08 14:02:00,
2013-10-08 07:21:00,50.0,45.0,29.90,NE,34,2.0,7.0,83,0.00,,,0.00,,2013-10-08 14:21:00,
2013-10-08 07:32:00,50.0,45.0,29.90,NE,34,2.0,7.0,83,0.00,,,0.00,,2013-10-08 14:32:00,
2013-10-08 07:52:00,49.0,44.0,29.90,NNE,26,0.0,1.0,82,0.00,,,0.00,,2013-10-08 14:52:00,
2013-10-08 08:01:00,49.0,44.0,29.90,NNE,26,0.0,1.0,82,0.00,,,0.00,,2013-10-08 15:01:00,
2013-10-08 08:22:00,52.0,46.0,29.91,NNE,27,0.0,1.0,80,0.00,,,0.00,,2013-10-08 15:22:00,
2013-10-08 08:33:00,52.0,46.0,29.91,NNE,27,0.0,1.0,80,0.00,,,0.00,,2013-10-08 15:33:00,
2013-10-08 08:44:00,52.0,46.0,29.91,NNE,27,0.0,1.0,80,0.00,,,0.00,,2013-10-08 15:44:00,
2013-10-08 08:53:00,54.0,47.0,29.92,NNE,26,0.0,1.0,78,0.00,,,0.00,,2013-10-08 15:53:00,
2013-10-08 09:03:00,54.0,47.0,29.92,NNE,26,0.0,1.0,78,0.00,,,0.00,,2013-10-08 16:03:00,
2013-10-08 09:13:00,54.0,47.0,29.92,NNE,26,0.0,1.0,78,0.00,,,0.00,,2013-10-08 16:13:00,
2013-10-08 09:23:00,54.0,47.0,29.92,NNE,26,0.0,1.0,78,0.00,,,0.00,,2013-10-08 16:23:00,
2013-10-08 09:33:00,54.0,47.0,29.92,NNE,26,0.0,1.0,78,0.00,,,0.00,,2013-10-08 16:33:00,
2013-10-08 09:53:00,62.0,52.0,29.93,NNE,30,0.0,5.0,69,0.00,,,0.00,,2013-10-08 16:53:00,
2013-10-08 10:03:00,62.0,52.0,29.93,NNE,30,0.0,5.0,69,0.00,,,0.00,,2013-10-08 17:03:00,
2013-10-08 10:22:00,65.0,53.0,29.93,NNE,24,0.0,6.0,65,0.00,,,0.00,,2013-10-08 17:22:00,
2013-10-08 10:33:00,65.0,53.0,29.93,NNE,24,0.0,6.0,65,0.00,,,0.00,,2013-10-08 17:33:00,
2013-10-08 10:52:00,67.0,55.0,29.92,South,184,0.0,10.0,65,0.00,,,0.00,,2013-10-08 17:52:00,
2013-10-08 11:01:00,67.0,55.0,29.92,South,184,0.0,10.0,65,0.00,,,0.00,,2013-10-08 18:01:00,
2013-10-08 11:22:00,68.0,55.0,29.91,South,180,0.0,7.0,63,0.00,,,0.00,,2013-10-08 18:22:00,
2013-10-08 11:32:00,68.0,55.0,29.91,South,180,0.0,7.0,63,0.00,,,0.00,,2013-10-08 18:32:00,
2013-10-08 11:42:00,68.0,55.0,29.91,South,180,0.0,7.0,63,0.00,,,0.00,,2013-10-08 18:42:00,
2013-10-08 11:53:00,68.0,55.0,29.91,South,180,0.0,7.0,63,0.00,,,0.00,,2013-10-08 18:53:00,
2013-10-08 12:02:00,68.0,55.0,29.91,South,180,0.0,7.0,63,0.00,,,0.00,,2013-10-08 19:02:00,
2013-10-08 13:22:00,69.0,55.0,29.88,SSW,200,13.0,20.0,62,0.00,,,0.00,,2013-10-08 20:22:00,
2013-10-08 13:32:00,69.0,55.0,29.88,SSW,200,13.0,20.0,62,0.00,,,0.00,,2013-10-08 20:32:00,
2013-10-08 13:42:00,69.0,55.0,29.88,SSW,200,13.0,20.0,62,0.00,,,0.00,,2013-10-08 20:42:00,
2013-10-08 13:52:00,69.0,55.0,29.88,SSW,200,13.0,20.0,62,0.00,,,0.00,,2013-10-08 20:52:00,
2013-10-08 14:01:00,69.0,55.0,29.88,SSW,200,13.0,20.0,62,0.00,,,0.00,,2013-10-08 21:01:00,
2013-10-08 15:24:00,70.0,55.0,29.85,WNW,284,7.0,12.0,59,0.00,,,0.00,,2013-10-08 22:24:00,
2013-10-08 15:32:00,70.0,55.0,29.85,WNW,284,7.0,12.0,59,0.00,,,0.00,,2013-10-08 22:32:00,
2013-10-08 15:48:00,70.0,55.0,29.85,WNW,284,7.0,12.0,59,0.00,,,0.00,,2013-10-08 22:48:00,
2013-10-08 15:56:00,68.0,55.0,29.84,WSW,238,7.0,13.0,63,0.00,,,0.00,,2013-10-08 22:56:00,
2013-10-08 16:03:00,68.0,55.0,29.84,WSW,238,7.0,13.0,63,0.00,,,0.00,,2013-10-08 23:03:00,
2013-10-08 16:22:00,68.0,54.0,29.83,SSW,209,9.0,12.0,62,0.00,,,0.00,,2013-10-08 23:22:00,
2013-10-08 16:34:00,68.0,54.0,29.83,SSW,209,9.0,12.0,62,0.00,,,0.00,,2013-10-08 23:34:00,
2013-10-08 16:42:00,68.0,54.0,29.83,SSW,209,9.0,12.0,62,0.00,,,0.00,,2013-10-08 23:42:00,
2013-10-08 16:52:00,68.0,54.0,29.83,SSW,209,9.0,12.0,62,0.00,,,0.00,,2013-10-08 23:52:00,
2013-10-08 17:02:00,68.0,54.0,29.83,SSW,209,9.0,12.0,62,0.00,,,0.00,,2013-10-09 00:02:00,
2013-10-08 17:22:00,65.0,55.0,29.83,WSW,254,5.0,11.0,71,0.00,,,0.00,,2013-10-09 00:22:00,
2013-10-08 17:32:00,65.0,55.0,29.83,WSW,254,5.0,11.0,71,0.00,,,0.00,,2013-10-09 00:32:00,
2013-10-08 17:43:00,65.0,55.0,29.83,WSW,254,5.0,11.0,71,0.00,,,0.00,,2013-10-09 00:43:00,
2013-10-08 17:52:00,65.0,55.0,29.83,WSW,254,5.0,11.0,71,0.00,,,0.00,,2013-10-09 00:52:00,
2013-10-08 18:01:00,65.0,55.0,29.83,WSW,254,5.0,11.0,71,0.00,,,0.00,,2013-10-09 01:01:00,
2013-10-08 19:23:00,62.0,54.0,29.82,West,275,6.0,9.0,76,0.00,,,0.00,,2013-10-09 02:23:00,
2013-10-08 19:32:00,62.0,54.0,29.82,West,275,6.0,9.0,76,0.00,,,0.00,,2013-10-09 02:32:00,
2013-10-08 19:34:00,61.0,53.0,29.83,WNW,297,2.0,7.0,75,0.00,,,0.00,,2013-10-09 02:34:00,
2013-10-08 19:42:00,62.0,54.0,29.82,West,275,6.0,9.0,76,0.00,,,0.00,,2013-10-09 02:42:00,
2013-10-08 19:52:00,61.0,53.0,29.83,WNW,297,2.0,7.0,75,0.00,,,0.00,,2013-10-09 02:52:00,
2013-10-08 20:02:00,61.0,53.0,29.83,WNW,297,2.0,7.0,75,0.00,,,0.00,,2013-10-09 03:02:00,
2013-10-08 20:11:00,61.0,53.0,29.83,WNW,297,2.0,7.0,75,0.00,,,0.00,,2013-10-09 03:11:00,
2013-10-08 20:23:00,61.0,53.0,29.83,WNW,297,2.0,7.0,75,0.00,,,0.00,,2013-10-09 03:23:00,
2013-10-08 21:33:00,60.0,52.0,29.83,WNW,291,1.0,3.0,76,0.00,,,0.00,,2013-10-09 04:33:00,
2013-10-08 21:54:00,60.0,52.0,29.83,WNW,291,1.0,3.0,76,0.00,,,0.00,,2013-10-09 04:54:00,
2013-10-08 22:04:00,60.0,52.0,29.83,WNW,291,1.0,3.0,76,0.00,,,0.00,,2013-10-09 05:04:00,
2013-10-08 22:13:00,60.0,52.0,29.83,WNW,291,1.0,3.0,76,0.00,,,0.00,,2013-10-09 05:13:00,
2013-10-08 22:22:00,60.0,52.0,29.83,WNW,291,1.0,3.0,76,0.00,,,0.00,,2013-10-09 05:22:00,